createdAt,value
2022-10-09T00:01:46.407Z,29.56
2022-10-09T00:09:50.027Z,29.51
2022-10-09T00:12:21.066Z,29.52
2022-10-09T00:17:37.571Z,29.42
2022-10-09T00:20:09.589Z,29.49
2022-10-09T00:22:40.806Z,29.41
2022-10-09T00:25:12.140Z,29.37
2022-10-09T00:27:43.416Z,29.40
2022-10-09T00:30:14.625Z,29.47
2022-10-09T00:32:45.517Z,29.32
2022-10-09T00:35:16.897Z,29.40
2022-10-09T00:40:33.595Z,29.39
2022-10-09T00:45:59.106Z,29.39
2022-10-09T00:48:30.053Z,29.36
2022-10-09T00:51:04.294Z,29.39
2022-10-09T00:53:38.323Z,29.41
2022-10-09T00:56:11.178Z,29.39
2022-10-09T00:58:42.444Z,29.38
2022-10-09T01:07:10.258Z,29.51
2022-10-09T01:09:55.744Z,29.45
2022-10-09T01:12:46.169Z,29.61
2022-10-09T01:15:21.824Z,29.67
2022-10-09T01:21:27.599Z,29.77
2022-10-09T01:27:36.185Z,29.84
2022-10-09T01:32:56.645Z,29.84
2022-10-09T01:35:28.479Z,29.89
2022-10-09T01:38:00.884Z,29.88
2022-10-09T01:40:32.718Z,29.87
2022-10-09T01:43:04.588Z,29.90
2022-10-09T01:45:47.123Z,29.90
2022-10-09T01:48:24.298Z,29.92
2022-10-09T01:51:05.436Z,30.00
2022-10-09T01:53:39.765Z,30.02
2022-10-09T01:56:16.981Z,30.07
2022-10-09T01:58:59.531Z,30.03
2022-10-09T02:01:37.329Z,30.09
2022-10-09T02:04:11.546Z,30.05
2022-10-09T02:06:44.481Z,30.04
2022-10-09T02:09:19.242Z,30.12
2022-10-09T02:11:57.485Z,30.05
2022-10-09T02:17:20.530Z,30.09
2022-10-09T02:19:55.000Z,30.13
2022-10-09T02:22:33.540Z,30.11
2022-10-09T02:31:09.959Z,30.19
2022-10-09T02:33:42.211Z,30.15
2022-10-09T02:36:13.500Z,30.16
2022-10-09T02:41:30.567Z,30.17
2022-10-09T02:44:01.548Z,30.23
2022-10-09T02:46:32.719Z,30.25
2022-10-09T02:49:03.820Z,30.31
2022-10-09T02:51:34.734Z,30.32
2022-10-09T02:54:07.553Z,30.28
2022-10-09T02:56:39.266Z,30.35
2022-10-09T02:59:10.651Z,30.32
2022-10-09T03:01:41.725Z,30.32
2022-10-09T03:04:12.708Z,30.34
2022-10-09T03:06:43.696Z,30.43
2022-10-09T03:09:17.994Z,30.44
2022-10-09T03:11:48.857Z,30.44
2022-10-09T03:19:50.685Z,30.52
2022-10-09T03:22:22.075Z,30.56
2022-10-09T03:24:52.561Z,30.54
2022-10-09T03:30:27.051Z,30.62
2022-10-09T03:33:15.819Z,30.64
2022-10-09T03:35:48.121Z,30.60
2022-10-09T03:38:20.043Z,30.64
2022-10-09T03:40:50.855Z,30.63
2022-10-09T03:43:23.461Z,30.63
2022-10-09T03:48:40.510Z,30.72
2022-10-09T03:51:11.280Z,30.74
2022-10-09T03:53:43.309Z,30.79
2022-10-09T03:56:14.405Z,30.84
2022-10-09T03:58:45.308Z,30.79
2022-10-09T04:01:16.415Z,30.84
2022-10-09T04:03:47.336Z,30.90
2022-10-09T04:11:50.177Z,30.92
2022-10-09T04:14:21.151Z,30.97
2022-10-09T04:22:23.241Z,31.07
2022-10-09T04:24:54.023Z,31.07
2022-10-09T04:27:24.888Z,31.10
2022-10-09T04:32:41.093Z,31.19
2022-10-09T04:37:57.497Z,31.25
2022-10-09T04:43:14.002Z,31.37
2022-10-09T04:51:16.319Z,31.43
2022-10-09T04:53:48.088Z,31.48
2022-10-09T04:56:23.572Z,31.52
2022-10-09T04:58:54.759Z,31.57
2022-10-09T05:01:26.353Z,31.56
2022-10-09T05:06:42.777Z,31.67
2022-10-09T05:09:13.917Z,31.64
2022-10-09T05:11:44.879Z,31.70
2022-10-09T05:14:15.862Z,31.69
2022-10-09T05:17:12.022Z,31.72
2022-10-09T05:22:23.564Z,31.67
2022-10-09T05:24:54.699Z,31.67
2022-10-09T05:27:25.516Z,31.65
2022-10-09T05:29:56.295Z,31.66
2022-10-09T05:32:27.174Z,31.67
2022-10-09T05:34:58.535Z,31.70
2022-10-09T05:45:47.209Z,31.85
2022-10-09T05:48:18.152Z,31.76
2022-10-09T05:56:24.180Z,31.67
2022-10-09T05:58:57.734Z,31.62
2022-10-09T06:01:40.244Z,31.58
2022-10-09T06:04:16.265Z,31.61
2022-10-09T06:06:47.782Z,31.57
2022-10-09T06:09:25.726Z,31.58
2022-10-09T06:14:44.045Z,31.56
2022-10-09T06:17:15.484Z,31.47
2022-10-09T06:19:46.264Z,31.47
2022-10-09T06:22:17.126Z,31.46
2022-10-09T06:24:47.906Z,31.47
2022-10-09T06:32:50.102Z,31.42
2022-10-09T06:35:20.585Z,31.41
2022-10-09T06:37:51.348Z,31.39
2022-10-09T06:40:22.190Z,31.38
2022-10-09T06:42:54.401Z,31.35
2022-10-09T06:45:26.312Z,31.38
2022-10-09T06:47:58.162Z,31.35
2022-10-09T06:50:29.132Z,31.38
2022-10-09T06:53:00.158Z,31.31
2022-10-09T06:55:30.814Z,31.23
2022-10-09T06:58:03.056Z,31.27
2022-10-09T07:03:19.937Z,31.25
2022-10-09T07:11:27.531Z,31.20
2022-10-09T07:14:00.665Z,31.18
2022-10-09T07:16:37.508Z,31.12
2022-10-09T07:21:59.613Z,30.99
2022-10-09T07:24:30.560Z,31.06
2022-10-09T07:27:01.241Z,31.12
2022-10-09T07:29:32.046Z,31.14
2022-10-09T07:32:04.845Z,31.10
2022-10-09T07:37:25.347Z,30.80
2022-10-09T07:39:56.242Z,30.73
2022-10-09T07:42:27.251Z,30.83
2022-10-09T07:44:58.065Z,30.85
2022-10-09T07:47:28.804Z,30.81
2022-10-09T07:50:00.004Z,30.80
2022-10-09T07:52:30.827Z,30.70
2022-10-09T07:55:01.635Z,30.80
2022-10-09T07:57:32.288Z,30.99
2022-10-09T08:00:02.919Z,30.86
2022-10-09T08:02:42.731Z,30.76
2022-10-09T08:05:13.821Z,30.79
2022-10-09T08:10:33.940Z,30.88
2022-10-09T08:13:04.829Z,30.91
2022-10-09T08:18:21.204Z,30.92
2022-10-09T08:21:00.540Z,30.87
2022-10-09T08:26:22.596Z,30.87
2022-10-09T08:29:01.800Z,30.91
2022-10-09T08:34:20.764Z,30.79
2022-10-09T08:36:51.056Z,30.82
2022-10-09T08:39:21.760Z,30.82
2022-10-09T08:41:55.953Z,30.75
2022-10-09T08:44:36.321Z,30.75
2022-10-09T08:47:25.434Z,30.86
2022-10-09T08:50:22.893Z,30.69
2022-10-09T08:53:15.447Z,30.88
2022-10-09T08:58:43.143Z,30.93
2022-10-09T09:04:51.131Z,31.03
2022-10-09T09:07:44.956Z,31.01
2022-10-09T09:22:56.311Z,30.76
2022-10-09T09:25:34.603Z,30.74
2022-10-09T09:28:34.327Z,30.72
2022-10-09T09:37:15.010Z,30.84
2022-10-09T09:42:39.640Z,30.97
2022-10-09T09:45:21.064Z,30.93
2022-10-09T09:51:16.273Z,30.94
2022-10-09T09:53:51.891Z,31.02
2022-10-09T09:56:23.357Z,31.02
2022-10-09T09:58:55.843Z,31.06
2022-10-09T10:01:30.501Z,31.03
2022-10-09T10:04:03.944Z,31.00
2022-10-09T10:06:47.030Z,30.94
2022-10-09T10:09:20.696Z,30.92
2022-10-09T10:14:53.539Z,30.85
2022-10-09T10:20:20.869Z,30.82
2022-10-09T10:22:56.923Z,30.86
2022-10-09T10:28:30.782Z,30.70
2022-10-09T10:31:05.929Z,30.71
2022-10-09T10:33:38.993Z,30.71
2022-10-09T10:36:13.812Z,30.77
2022-10-09T10:38:55.833Z,30.66
2022-10-09T10:41:43.122Z,30.80
2022-10-09T10:44:45.401Z,30.72
2022-10-09T10:47:24.164Z,30.70
2022-10-09T10:49:55.120Z,30.40
2022-10-09T10:52:34.595Z,30.50
2022-10-09T10:55:43.769Z,30.54
2022-10-09T11:01:41.832Z,30.17
2022-10-09T11:04:38.800Z,30.27
2022-10-09T11:07:59.920Z,30.28
2022-10-09T11:10:36.859Z,30.32
2022-10-09T11:13:11.795Z,30.38
2022-10-09T11:19:45.127Z,30.26
2022-10-09T11:22:28.640Z,30.44
2022-10-09T11:25:22.336Z,30.40
2022-10-09T11:28:00.235Z,30.41
2022-10-09T11:36:28.191Z,30.30
2022-10-09T11:41:51.788Z,30.34
2022-10-09T11:50:40.317Z,30.35
2022-10-09T11:53:18.901Z,30.30
2022-10-09T11:55:51.054Z,30.26
2022-10-09T12:01:26.388Z,30.08
2022-10-09T12:04:12.958Z,29.91
2022-10-09T12:06:52.341Z,29.77
2022-10-09T12:09:45.885Z,29.60
2022-10-09T12:12:19.702Z,29.46
2022-10-09T12:14:53.178Z,29.33
2022-10-09T12:17:26.563Z,29.32
2022-10-09T12:20:04.514Z,29.26
2022-10-09T12:23:13.882Z,29.31
2022-10-09T12:25:48.904Z,29.25
2022-10-09T12:28:25.280Z,29.20
2022-10-09T12:30:56.418Z,29.27
2022-10-09T12:33:39.783Z,29.33
2022-10-09T12:36:27.285Z,29.36
2022-10-09T12:38:59.066Z,29.34
2022-10-09T12:41:35.427Z,29.39
2022-10-09T12:44:09.284Z,29.42
2022-10-09T12:46:42.269Z,29.36
2022-10-09T12:49:23.520Z,29.33
2022-10-09T12:51:59.411Z,29.41
2022-10-09T13:00:06.642Z,29.31
2022-10-09T13:02:37.898Z,29.44
2022-10-09T13:05:08.672Z,29.51
2022-10-09T13:07:39.624Z,29.41
2022-10-09T13:13:22.926Z,29.57
2022-10-09T13:19:06.574Z,29.58
2022-10-09T13:21:37.660Z,29.56
2022-10-09T13:24:13.835Z,29.62
2022-10-09T13:26:46.874Z,29.64
2022-10-09T13:32:05.388Z,29.60
2022-10-09T13:34:36.429Z,29.58
2022-10-09T13:37:07.340Z,29.60
2022-10-09T13:42:25.780Z,29.60
2022-10-09T13:47:42.254Z,29.58
2022-10-09T13:53:02.832Z,29.68
2022-10-09T13:55:33.619Z,29.67
2022-10-09T13:58:04.420Z,29.71
2022-10-09T14:03:21.978Z,30.01
2022-10-09T14:11:24.007Z,30.12
2022-10-09T14:16:40.698Z,30.16
2022-10-09T14:19:12.615Z,30.22
2022-10-09T14:27:14.522Z,30.09
2022-10-09T14:32:31.914Z,29.98
2022-10-09T14:35:02.792Z,30.17
2022-10-09T14:37:42.195Z,30.16
2022-10-09T14:45:45.948Z,30.27
2022-10-09T14:48:16.875Z,30.32
2022-10-09T14:50:48.001Z,30.20
2022-10-09T14:56:09.866Z,30.22
2022-10-09T14:58:41.575Z,30.26
2022-10-09T15:01:16.768Z,30.27
2022-10-09T15:06:34.374Z,30.27
2022-10-09T15:09:06.517Z,30.22
2022-10-09T15:11:38.623Z,30.14
2022-10-09T15:14:09.515Z,30.22
2022-10-09T15:16:40.640Z,30.12
2022-10-09T15:19:11.950Z,30.05
2022-10-09T15:21:42.876Z,30.05
2022-10-09T15:24:14.021Z,30.03
2022-10-09T15:26:45.058Z,30.03
2022-10-09T15:29:15.848Z,30.02
2022-10-09T15:34:33.645Z,30.02
2022-10-09T15:37:06.355Z,30.04
2022-10-09T15:39:37.259Z,29.99
2022-10-09T15:42:08.147Z,29.97
2022-10-09T15:47:49.489Z,29.96
2022-10-09T15:53:02.812Z,29.93
2022-10-09T15:55:33.613Z,29.92
2022-10-09T15:58:04.560Z,29.92
2022-10-09T16:00:40.552Z,29.91
2022-10-09T16:05:58.997Z,29.93
2022-10-09T16:08:31.692Z,29.93
2022-10-09T16:11:03.121Z,29.90
2022-10-09T16:13:34.008Z,29.91
2022-10-09T16:18:54.703Z,29.93
2022-10-09T16:21:28.310Z,29.96
2022-10-09T16:24:01.351Z,29.90
2022-10-09T16:26:33.197Z,29.92
2022-10-09T16:29:04.107Z,29.92
2022-10-09T16:34:25.628Z,29.94
2022-10-09T16:39:42.708Z,29.90
2022-10-09T16:42:13.695Z,29.87
2022-10-09T16:44:44.754Z,29.88
2022-10-09T16:47:16.801Z,29.88
2022-10-09T16:52:33.430Z,29.89
2022-10-09T16:55:04.410Z,29.86
2022-10-09T16:57:35.175Z,29.90
2022-10-09T17:02:52.234Z,29.85
2022-10-09T17:05:23.348Z,29.82
2022-10-09T17:07:54.435Z,29.81
2022-10-09T17:13:10.721Z,29.84
2022-10-09T17:15:45.856Z,29.82
2022-10-09T17:21:06.104Z,29.86
2022-10-09T17:23:38.226Z,29.82
2022-10-09T17:26:14.712Z,29.81
2022-10-09T17:31:33.424Z,29.80
2022-10-09T17:39:38.166Z,29.81
2022-10-09T17:42:09.153Z,29.78
2022-10-09T17:44:39.879Z,29.81
2022-10-09T17:47:11.373Z,29.78
2022-10-09T17:49:42.165Z,29.80
2022-10-09T17:52:12.995Z,29.84
2022-10-09T17:54:43.854Z,29.83
2022-10-09T17:57:15.961Z,29.85
2022-10-09T17:59:46.972Z,29.81
2022-10-09T18:02:18.027Z,29.78
2022-10-09T18:10:20.727Z,29.82
2022-10-09T18:12:51.627Z,29.81
2022-10-09T18:15:22.543Z,29.83
2022-10-09T18:17:53.426Z,29.82
2022-10-09T18:20:26.107Z,29.80
2022-10-09T18:25:46.657Z,29.82
2022-10-09T18:28:17.789Z,29.80
2022-10-09T18:30:51.610Z,29.82
2022-10-09T18:36:22.279Z,29.81
2022-10-09T18:41:44.803Z,29.79
2022-10-09T18:44:22.412Z,29.80
2022-10-09T18:46:56.559Z,29.76
2022-10-09T18:49:32.265Z,29.81
2022-10-09T18:52:06.235Z,29.80
2022-10-09T18:54:37.212Z,29.81
2022-10-09T18:57:08.947Z,29.79
2022-10-09T18:59:41.648Z,29.80
2022-10-09T19:02:12.559Z,29.81
2022-10-09T19:04:43.451Z,29.78
2022-10-09T19:07:14.330Z,29.80
2022-10-09T19:09:45.641Z,29.79
2022-10-09T19:12:16.063Z,29.80
2022-10-09T19:14:47.149Z,29.81
2022-10-09T19:17:18.124Z,29.81
2022-10-09T19:19:51.567Z,29.82
2022-10-09T19:22:24.103Z,29.82
2022-10-09T19:24:55.454Z,29.81
2022-10-09T19:27:26.780Z,29.78
2022-10-09T19:29:57.781Z,29.77
2022-10-09T19:32:29.103Z,29.78
2022-10-09T19:34:59.689Z,29.77
2022-10-09T19:37:30.506Z,29.77
2022-10-09T19:40:01.424Z,29.77
2022-10-09T19:42:32.272Z,29.76
2022-10-09T19:45:03.199Z,29.78
2022-10-09T19:47:34.059Z,29.78
2022-10-09T19:50:05.516Z,29.77
2022-10-09T19:55:22.189Z,29.76
2022-10-09T19:57:53.193Z,29.75
2022-10-09T20:08:41.644Z,29.74
2022-10-09T20:13:59.864Z,29.70
2022-10-09T20:16:34.746Z,29.71
2022-10-09T20:19:07.209Z,29.67
2022-10-09T20:24:23.819Z,29.65
2022-10-09T20:29:40.168Z,29.68
2022-10-09T20:32:11.476Z,29.65
2022-10-09T20:34:41.847Z,29.67
2022-10-09T20:37:12.710Z,29.69
2022-10-09T20:39:43.438Z,29.69
2022-10-09T20:42:14.750Z,29.68
2022-10-09T20:47:31.121Z,29.65
2022-10-09T20:55:35.457Z,29.65
2022-10-09T20:58:06.537Z,29.60
2022-10-09T21:00:37.193Z,29.60
2022-10-09T21:03:12.203Z,29.59
2022-10-09T21:05:45.355Z,29.62
2022-10-09T21:13:49.500Z,29.58
2022-10-09T21:16:26.075Z,29.60
2022-10-09T21:21:50.998Z,29.64
2022-10-09T21:24:22.100Z,29.65
2022-10-09T21:26:52.946Z,29.63
2022-10-09T21:32:10.505Z,29.62
2022-10-09T21:34:41.591Z,29.64
2022-10-09T21:37:21.305Z,29.60
2022-10-09T21:42:38.924Z,29.56
2022-10-09T21:45:11.489Z,29.59
2022-10-09T21:50:28.281Z,29.57
2022-10-09T21:58:29.631Z,29.58
2022-10-09T22:05:45.549Z,29.59
2022-10-09T22:08:16.404Z,29.59
2022-10-09T22:10:47.193Z,29.58
2022-10-09T22:13:18.516Z,29.57
2022-10-09T22:15:51.731Z,29.55
2022-10-09T22:18:22.839Z,29.57
2022-10-09T22:20:55.706Z,29.54
2022-10-09T22:29:02.028Z,29.59
2022-10-09T22:31:32.799Z,29.60
2022-10-09T22:34:04.844Z,29.62
2022-10-09T22:36:37.372Z,29.62
2022-10-09T22:41:56.561Z,29.67
2022-10-09T22:50:00.144Z,29.66
2022-10-09T22:52:31.228Z,29.64
2022-10-09T22:55:03.506Z,29.64
2022-10-09T23:00:20.135Z,29.62
2022-10-09T23:05:36.599Z,29.61
2022-10-09T23:10:53.883Z,29.44
2022-10-09T23:13:25.730Z,29.44
2022-10-09T23:18:42.625Z,29.44
2022-10-09T23:24:04.104Z,29.50
2022-10-09T23:26:36.420Z,29.53
2022-10-09T23:29:16.093Z,29.50
2022-10-09T23:31:47.650Z,29.53
2022-10-09T23:34:18.836Z,29.54
2022-10-09T23:36:50.812Z,29.55
2022-10-09T23:39:21.582Z,29.53
2022-10-09T23:41:53.825Z,29.54
2022-10-09T23:44:24.743Z,29.51
2022-10-09T23:46:55.749Z,29.53
2022-10-09T23:49:26.465Z,29.56
2022-10-09T23:51:57.536Z,29.53
2022-10-09T23:54:28.331Z,29.53
2022-10-09T23:56:59.166Z,29.54
2022-10-09T23:59:29.984Z,29.50
